Time;durP1;ratioP1;P1;durP2;ratioP2;P2;SDS_P1;SDS_P2;PMS_P1;PMS_P2;Temp;Humidity;BMP_temperature;BMP_pressure;BME280_temperature;BME280_humidity;BME280_pressure;Samples;Min_cycle;Max_cycle;Signal;HPM_P1;HPM_P2
2021/07/27 00:01:14;;;;;;;15.15;9.07;;;;;;;17.30;63.09;100487.03;5138623;27;20218;-74
2021/07/27 00:03:40;;;;;;;14.43;8.60;;;;;;;17.38;62.93;100497.34;5139686;27;20460;-73
2021/07/27 00:06:07;;;;;;;22.13;10.13;;;;;;;17.31;62.74;100480.03;5141475;27;20059;-73
2021/07/27 00:08:37;;;;;;;17.35;8.05;;;;;;;17.43;62.67;100502.53;5126982;27;20146;-75
2021/07/27 00:11:08;;;;;;;14.93;8.93;;;;;;;17.35;62.48;100488.69;5162952;27;20495;-75
2021/07/27 00:13:35;;;;;;;16.55;8.13;;;;;;;17.40;62.56;100505.22;5155259;27;20503;-78
2021/07/27 00:16:02;;;;;;;17.38;8.30;;;;;;;17.23;62.25;100484.63;5120371;27;20571;-75
2021/07/27 00:18:28;;;;;;;15.98;8.15;;;;;;;17.27;62.18;100502.03;5159161;27;20034;-74
2021/07/27 00:20:54;;;;;;;12.40;7.45;;;;;;;17.25;62.45;100506.47;5144826;27;20080;-75
2021/07/27 00:23:19;;;;;;;18.33;8.30;;;;;;;17.19;62.32;100506.63;5161833;27;20035;-75
2021/07/27 00:25:45;;;;;;;21.73;7.60;;;;;;;17.16;62.29;100507.56;5160923;27;20050;-74
2021/07/27 00:28:11;;;;;;;16.73;7.75;;;;;;;17.10;62.78;100503.31;5141656;27;20066;-74
2021/07/27 00:30:37;;;;;;;13.73;7.70;;;;;;;17.08;62.75;100504.25;5162902;27;20068;-72
2021/07/27 00:33:03;;;;;;;16.52;8.20;;;;;;;16.94;62.69;100488.78;5151789;27;20031;-75
2021/07/27 00:35:31;;;;;;;14.30;8.45;;;;;;;16.93;63.11;100485.31;5159482;27;20459;-75
2021/07/27 00:38:08;;;;;;;13.20;7.88;;;;;;;17.01;63.12;100506.19;5160446;27;20105;-74
2021/07/27 00:40:40;;;;;;;18.65;8.82;;;;;;;16.95;63.23;100508.91;5178150;27;20023;-75
2021/07/27 00:43:17;;;;;;;18.60;7.50;;;;;;;16.92;63.13;100509.88;5173529;27;20038;-75
2021/07/27 00:45:43;;;;;;;13.93;7.40;;;;;;;16.89;63.60;100519.56;5158617;27;20098;-74
2021/07/27 00:48:10;;;;;;;16.83;8.32;;;;;;;16.74;63.39;100490.13;5176864;27;20109;-74
2021/07/27 00:50:36;;;;;;;15.23;8.00;;;;;;;16.71;63.21;100490.19;5176580;27;20049;-76
2021/07/27 00:53:03;;;;;;;17.30;8.52;;;;;;;16.79;63.33;100504.03;5176183;27;20035;-74
2021/07/27 00:55:30;;;;;;;14.73;7.57;;;;;;;16.77;63.54;100499.72;5169115;27;20056;-75
2021/07/27 00:57:57;;;;;;;14.98;8.18;;;;;;;16.74;63.71;100502.41;5137550;27;20089;-75
2021/07/27 01:00:26;;;;;;;13.13;6.90;;;;;;;16.54;63.61;100483.56;5155603;27;20518;-74
2021/07/27 01:02:53;;;;;;;16.60;9.02;;;;;;;16.45;63.62;100483.78;5156144;27;20087;-76
2021/07/27 01:05:19;;;;;;;10.55;7.05;;;;;;;16.58;63.66;100499.28;5155983;27;20043;-74
2021/07/27 01:07:45;;;;;;;18.80;8.23;;;;;;;16.48;63.80;100496.00;5155716;27;20038;-75
2021/07/27 01:10:13;;;;;;;13.27;8.68;;;;;;;16.47;64.05;100503.00;5155892;27;20136;-75
2021/07/27 01:12:40;;;;;;;13.70;8.35;;;;;;;16.45;64.34;100509.19;5137063;27;20078;-76
2021/07/27 01:15:08;;;;;;;13.90;7.38;;;;;;;16.38;64.45;100501.44;5097369;27;20133;-74
2021/07/27 01:17:34;;;;;;;16.52;8.07;;;;;;;16.35;64.75;100498.03;5089180;27;20130;-76
2021/07/27 01:20:10;;;;;;;18.00;8.40;;;;;;;16.37;64.94;100501.47;5124232;27;20035;-76
2021/07/27 01:44:05;;;;;;;17.70;8.23;;;;;;;16.00;65.55;100487.38;5137521;27;20495;-74
2021/07/27 01:46:34;;;;;;;19.85;8.40;;;;;;;16.09;65.73;100507.31;5155677;27;20073;-74
2021/07/27 01:49:01;;;;;;;14.55;7.80;;;;;;;16.03;65.79;100492.56;5110787;27;20049;-75
2021/07/27 01:51:27;;;;;;;12.60;8.07;;;;;;;16.02;65.52;100496.06;5119065;27;20075;-74
2021/07/27 01:53:54;;;;;;;14.43;8.68;;;;;;;15.96;65.61;100478.69;5154133;27;20047;-76
2021/07/27 01:56:23;;;;;;;11.32;7.80;;;;;;;16.07;65.80;100490.72;5155047;27;20042;-73
2021/07/27 01:58:50;;;;;;;15.73;9.35;;;;;;;16.10;65.79;100498.53;5135996;27;20034;-77
2021/07/27 02:01:20;;;;;;;13.85;8.48;;;;;;;16.07;65.89;100490.72;5119395;27;20049;-74
2021/07/27 02:03:47;;;;;;;17.10;8.27;;;;;;;16.13;65.92;100500.22;5154219;27;20038;-75
2021/07/27 02:06:15;;;;;;;16.02;7.72;;;;;;;16.15;65.89;100496.69;5154464;27;20042;-75
2021/07/27 02:08:41;;;;;;;15.63;8.70;;;;;;;16.15;65.72;100499.31;5120450;27;20087;-76
2021/07/27 02:11:11;;;;;;;16.48;8.55;;;;;;;16.21;65.61;100495.69;5137710;27;20074;-76
2021/07/27 02:14:00;;;;;;;14.20;8.00;;;;;;;16.20;65.80;100492.22;5155418;27;20057;-75
2021/07/27 02:16:24;;;;;;;15.63;7.53;;;;;;;16.29;65.85;100495.53;5136938;27;20050;-76
2021/07/27 02:18:50;;;;;;;17.45;8.13;;;;;;;16.33;65.81;100498.03;5136995;27;20068;-73
2021/07/27 02:21:16;;;;;;;20.05;8.02;;;;;;;16.24;65.67;100482.50;5136734;27;20567;-75
2021/07/27 02:23:42;;;;;;;21.08;8.68;;;;;;;16.41;65.57;100498.75;5153899;27;20090;-75
2021/07/27 02:26:08;;;;;;;17.67;8.45;;;;;;;16.35;65.55;100477.00;5135157;27;20511;-75
2021/07/27 02:28:34;;;;;;;18.70;8.10;;;;;;;16.55;65.63;100505.47;5153648;27;20079;-78
2021/07/27 02:31:02;;;;;;;14.32;8.43;;;;;;;16.58;65.33;100501.91;5153727;27;20095;-76
2021/07/27 02:33:32;;;;;;;18.50;8.80;;;;;;;16.60;65.39;100484.34;5153975;27;20034;-75
2021/07/27 02:35:57;;;;;;;14.88;8.57;;;;;;;16.73;65.33;100501.53;5153790;27;20038;-74
2021/07/27 02:38:23;;;;;;;19.45;9.40;;;;;;;16.78;65.52;100493.53;5134941;27;20045;-75
2021/07/27 02:40:49;;;;;;;18.67;9.38;;;;;;;16.88;65.43;100502.94;5135116;27;20063;-75
2021/07/27 02:43:15;;;;;;;17.33;9.93;;;;;;;16.95;65.03;100501.94;5135248;27;20516;-75
2021/07/27 02:45:41;;;;;;;15.90;10.35;;;;;;;17.01;65.15;100499.16;5134894;27;20046;-74
2021/07/27 02:48:08;;;;;;;17.23;10.00;;;;;;;17.08;65.06;100502.50;5153566;27;20122;-76
2021/07/27 02:50:36;;;;;;;12.23;7.90;;;;;;;17.14;64.94;100504.97;5153329;27;20049;-75
2021/07/27 02:53:02;;;;;;;18.52;8.65;;;;;;;17.21;64.74;100505.69;5154233;27;20041;-75
2021/07/27 02:55:28;;;;;;;13.88;7.78;;;;;;;17.30;64.96;100509.84;5164205;27;20038;-76
2021/07/27 02:57:54;;;;;;;18.30;8.75;;;;;;;17.29;64.85;100482.69;5152999;27;20041;-75
2021/07/27 03:00:21;;;;;;;13.98;7.60;;;;;;;17.47;64.79;100501.50;5152922;27;20043;-76
2021/07/27 03:02:46;;;;;;;14.23;9.23;;;;;;;17.58;64.62;100498.59;5117555;27;20121;-75
2021/07/27 03:05:14;;;;;;;21.27;8.88;;;;;;;17.63;64.65;100496.72;5153416;27;20049;-76
2021/07/27 03:10:21;;;;;;;15.90;8.60;;;;;;;17.80;64.24;100493.63;5116974;27;20087;-77
2021/07/27 03:12:54;;;;;;;16.67;8.82;;;;;;;17.99;64.13;100508.91;5153494;27;20061;-77
2021/07/27 03:15:26;;;;;;;18.95;8.85;;;;;;;18.11;64.16;100502.44;5154410;27;20046;-75
2021/07/27 03:18:00;;;;;;;14.68;8.35;;;;;;;18.25;64.07;100508.16;5134662;27;20503;-75
2021/07/27 03:20:27;;;;;;;14.50;8.90;;;;;;;18.39;63.69;100504.25;5134229;27;20124;-74
2021/07/27 03:22:54;;;;;;;16.35;8.43;;;;;;;18.52;63.55;100492.44;5117506;27;20512;-73
2021/07/27 03:25:21;;;;;;;17.60;7.68;;;;;;;18.64;63.31;100497.34;5123807;27;20066;-75
2021/07/27 03:27:49;;;;;;;15.63;8.20;;;;;;;18.76;63.04;100490.78;5132321;27;20091;-74
2021/07/27 03:30:19;;;;;;;18.30;9.15;;;;;;;18.90;63.01;100495.63;5127011;27;20053;-76
2021/07/27 03:32:47;;;;;;;18.42;9.30;;;;;;;19.04;62.61;100492.56;5172432;27;20130;-75
2021/07/27 03:35:17;;;;;;;16.70;8.38;;;;;;;19.14;62.62;100485.19;5154095;27;20042;-75
2021/07/27 03:37:43;;;;;;;15.05;8.52;;;;;;;19.33;62.48;100489.84;5134148;27;20046;-75
2021/07/27 03:40:10;;;;;;;13.95;9.13;;;;;;;19.41;62.51;100478.13;5135105;27;20050;-74
2021/07/27 03:42:36;;;;;;;13.07;8.02;;;;;;;19.68;62.05;100491.25;5133254;27;20586;-76
2021/07/27 03:45:02;;;;;;;16.17;9.18;;;;;;;19.69;61.72;100460.44;5133301;27;20091;-76
2021/07/27 03:47:28;;;;;;;14.95;8.25;;;;;;;20.02;61.45;100491.81;5131343;27;20027;-75
2021/07/27 03:49:54;;;;;;;15.20;8.68;;;;;;;20.12;61.04;100469.44;5151777;27;20075;-75
2021/07/27 03:52:20;;;;;;;17.67;8.43;;;;;;;20.36;60.41;100487.91;5151418;27;20060;-75
2021/07/27 03:54:46;;;;;;;18.08;8.70;;;;;;;20.54;60.48;100483.66;5150297;27;20030;-75
2021/07/27 03:57:12;;;;;;;17.58;8.85;;;;;;;20.70;59.73;100480.44;5151374;27;20047;-75
2021/07/27 03:59:38;;;;;;;15.32;8.25;;;;;;;20.79;59.03;100471.28;5137194;27;20038;-76
2021/07/27 04:02:04;;;;;;;12.80;8.45;;;;;;;21.05;59.02;100480.78;5126884;27;20038;-74
2021/07/27 04:04:34;;;;;;;15.00;7.72;;;;;;;21.21;58.25;100473.91;5099747;27;20042;-75
2021/07/27 04:07:01;;;;;;;16.55;7.97;;;;;;;21.42;57.65;100475.72;5116446;27;20041;-77
2021/07/27 04:09:30;;;;;;;12.38;6.93;;;;;;;21.59;56.69;100464.41;5134954;27;20084;-76
2021/07/27 04:11:56;;;;;;;12.15;7.35;;;;;;;21.71;55.82;100460.38;5133079;27;20415;-75
2021/07/27 04:14:23;;;;;;;10.70;6.05;;;;;;;21.92;55.48;100458.53;5127379;27;20419;-76
2021/07/27 04:16:49;;;;;;;10.23;5.80;;;;;;;22.18;54.67;100451.16;5148919;27;20034;-77
2021/07/27 04:19:20;;;;;;;8.45;5.38;;;;;;;22.50;53.48;100468.19;5152078;27;20035;-77
2021/07/27 04:21:46;;;;;;;9.85;5.63;;;;;;;22.59;52.78;100448.34;5116285;27;20031;-76
2021/07/27 04:24:12;;;;;;;13.63;6.10;;;;;;;22.87;52.03;100458.44;5133759;27;20038;-76
2021/07/27 04:26:37;;;;;;;10.65;5.75;;;;;;;23.03;51.24;100447.06;5134143;27;20473;-76
2021/07/27 04:29:03;;;;;;;9.10;5.45;;;;;;;23.21;50.30;100447.06;5130814;27;20500;-77
2021/07/27 04:31:30;;;;;;;10.20;4.93;;;;;;;23.37;49.67;100453.31;5136267;27;20447;-75
2021/07/27 04:33:56;;;;;;;8.70;4.68;;;;;;;23.43;49.11;100446.81;5133345;27;20038;-76
2021/07/27 04:36:22;;;;;;;6.47;4.40;;;;;;;23.56;48.75;100441.72;5153182;27;20039;-76
2021/07/27 04:38:47;;;;;;;7.60;4.13;;;;;;;23.66;47.54;100436.75;5155468;27;20053;-77
2021/07/27 04:41:13;;;;;;;7.82;3.30;;;;;;;23.79;47.11;100439.63;5136852;27;20114;-76
2021/07/27 04:43:40;;;;;;;5.25;3.80;;;;;;;24.03;46.35;100445.44;5138449;27;20575;-74
2021/07/27 04:46:07;;;;;;;6.50;3.33;;;;;;;24.18;45.70;100433.06;5119522;27;20031;-75
2021/07/27 04:48:33;;;;;;;7.55;3.65;;;;;;;24.36;44.87;100432.06;5153632;27;20035;-75
2021/07/27 04:50:59;;;;;;;6.57;3.50;;;;;;;24.56;43.81;100427.41;5119917;27;20038;-77
2021/07/27 04:53:26;;;;;;;8.93;3.70;;;;;;;24.74;43.53;100424.66;5119734;27;20087;-77
2021/07/27 04:56:00;;;;;;;7.57;3.85;;;;;;;25.01;42.97;100422.16;5119616;27;20042;-75
2021/07/27 04:58:28;;;;;;;7.30;3.95;;;;;;;25.15;42.72;100418.66;5119716;27;20091;-75
2021/07/27 05:01:01;;;;;;;7.90;3.72;;;;;;;25.31;41.76;100420.38;5119996;27;20039;-77
2021/07/27 05:03:29;;;;;;;5.38;3.53;;;;;;;25.35;41.74;100397.94;5155207;27;20031;-73
2021/07/27 05:05:54;;;;;;;5.43;3.47;;;;;;;25.58;41.33;100417.00;5121490;27;20034;-77
2021/07/27 05:08:20;;;;;;;6.55;3.65;;;;;;;25.71;40.74;100407.28;5165873;27;20414;-74
2021/07/27 05:10:46;;;;;;;6.38;3.63;;;;;;;25.91;40.26;100406.03;5155279;27;20555;-76
2021/07/27 05:13:12;;;;;;;6.18;3.78;;;;;;;26.14;40.02;100414.41;5136208;27;20569;-77
2021/07/27 05:15:38;;;;;;;6.75;3.47;;;;;;;26.23;39.71;100418.28;5136620;27;20726;-75
2021/07/27 05:18:04;;;;;;;10.40;4.05;;;;;;;26.30;39.14;100411.59;5154136;27;20126;-76
2021/07/27 05:20:30;;;;;;;10.10;4.13;;;;;;;26.50;39.57;100417.41;5136086;27;20077;-76
2021/07/27 05:22:56;;;;;;;5.43;3.45;;;;;;;26.68;38.93;100416.19;5154182;27;20503;-75
2021/07/27 05:25:22;;;;;;;7.43;3.20;;;;;;;26.82;38.35;100412.63;5154555;27;20091;-76
2021/07/27 05:27:48;;;;;;;11.48;4.30;;;;;;;26.94;38.23;100397.59;5118609;27;20043;-75
2021/07/27 05:30:16;;;;;;;4.40;3.08;;;;;;;27.28;37.83;100413.94;5155263;27;20039;-75
2021/07/27 05:32:43;;;;;;;9.93;3.40;;;;;;;27.84;37.23;100412.75;5155312;27;20079;-75
2021/07/27 05:35:10;;;;;;;5.63;2.97;;;;;;;28.20;36.23;100405.69;5138354;27;20542;-74
2021/07/27 05:37:36;;;;;;;4.45;2.55;;;;;;;28.44;35.31;100387.97;5176609;27;20042;-75
2021/07/27 05:40:06;;;;;;;5.97;3.40;;;;;;;28.85;34.61;100400.06;5110457;27;20102;-75
2021/07/27 05:42:32;;;;;;;5.18;3.13;;;;;;;29.13;33.94;100411.31;5119482;27;20526;-77
2021/07/27 05:44:58;;;;;;;5.30;2.60;;;;;;;29.53;33.40;100405.53;5154823;27;20035;-75
2021/07/27 05:47:24;;;;;;;3.47;2.70;;;;;;;30.49;32.30;100395.09;5118391;27;20579;-75
2021/07/27 05:49:50;;;;;;;4.32;2.70;;;;;;;32.27;29.93;100384.22;5118393;27;20125;-76
2021/07/27 05:52:16;;;;;;;5.10;2.58;;;;;;;34.11;28.04;100381.28;5135478;27;20126;-76
2021/07/27 05:54:45;;;;;;;3.10;2.10;;;;;;;36.05;25.82;100371.38;5134796;27;20409;-76
2021/07/27 05:57:14;;;;;;;4.15;2.63;;;;;;;37.71;23.81;100378.25;5154675;27;20138;-76
2021/07/27 05:59:42;;;;;;;4.23;2.40;;;;;;;38.92;22.55;100374.16;5153837;27;20045;-77
2021/07/27 06:02:12;;;;;;;3.45;2.40;;;;;;;40.08;21.33;100376.25;5136457;27;20038;-78
2021/07/27 06:04:38;;;;;;;3.85;2.55;;;;;;;40.94;20.46;100369.03;5154820;27;20039;-77
2021/07/27 06:07:04;;;;;;;6.75;2.90;;;;;;;42.00;19.28;100377.94;5136415;27;20042;-78
2021/07/27 06:09:29;;;;;;;5.68;2.60;;;;;;;42.84;17.58;100375.66;5136143;27;20035;-77
2021/07/27 06:11:55;;;;;;;3.20;2.30;;;;;;;43.63;17.20;100386.59;5133645;27;20051;-76
2021/07/27 06:14:21;;;;;;;3.97;2.50;;;;;;;44.00;15.74;100385.97;5145846;27;20055;-74
2021/07/27 06:16:47;;;;;;;5.95;2.70;;;;;;;44.08;15.39;100380.22;5114607;27;20182;-77
2021/07/27 06:19:13;;;;;;;7.03;2.65;;;;;;;44.28;15.23;100383.88;5132106;27;20039;-76
2021/07/27 06:21:40;;;;;;;11.38;2.53;;;;;;;45.06;14.31;100378.97;5153413;27;20790;-78
2021/07/27 06:24:10;;;;;;;5.20;2.40;;;;;;;45.07;13.95;100380.66;5118193;27;20039;-75
2021/07/27 06:26:37;;;;;;;4.20;2.47;;;;;;;45.92;13.60;100386.34;5154421;27;20042;-76
2021/07/27 06:29:04;;;;;;;4.15;2.50;;;;;;;46.54;13.20;100385.16;5134753;27;20061;-74
2021/07/27 06:31:30;;;;;;;4.43;2.70;;;;;;;47.28;12.09;100379.13;5153364;27;20042;-76
2021/07/27 06:33:56;;;;;;;5.22;2.65;;;;;;;47.69;11.91;100383.78;5153247;27;20038;-76
2021/07/27 06:36:22;;;;;;;5.07;2.83;;;;;;;47.98;11.43;100372.75;5153067;27;20042;-78
2021/07/27 06:38:48;;;;;;;6.80;2.42;;;;;;;48.63;11.28;100385.09;5153547;27;20043;-77
2021/07/27 06:41:14;;;;;;;4.25;2.78;;;;;;;49.09;10.58;100384.94;5134515;27;20042;-75
2021/07/27 06:43:42;;;;;;;4.65;3.15;;;;;;;49.55;10.27;100383.81;5117722;27;20045;-75
2021/07/27 06:46:09;;;;;;;4.75;3.50;;;;;;;50.11;9.72;100388.22;5153314;27;20042;-75
2021/07/27 06:48:35;;;;;;;4.25;2.83;;;;;;;50.45;9.67;100388.78;5134512;27;20078;-78
2021/07/27 06:51:12;;;;;;;7.30;3.58;;;;;;;50.84;8.74;100379.34;5153048;27;20076;-76
2021/07/27 06:53:38;;;;;;;4.90;3.10;;;;;;;51.14;8.85;100375.03;5117672;27;20049;-78
2021/07/27 06:56:08;;;;;;;5.80;3.22;;;;;;;51.28;9.25;100380.94;5119275;27;20129;-76
2021/07/27 06:58:36;;;;;;;6.00;3.38;;;;;;;51.50;8.85;100377.97;5135847;27;20053;-77
2021/07/27 07:01:03;;;;;;;5.75;4.07;;;;;;;51.97;8.39;100378.06;5155594;27;20038;-77
2021/07/27 07:03:29;;;;;;;5.85;3.38;;;;;;;52.32;8.23;100365.28;5136380;27;20061;-76
2021/07/27 07:05:55;;;;;;;6.40;3.63;;;;;;;52.65;8.27;100376.84;5154315;27;20125;-78
2021/07/27 07:08:22;;;;;;;4.63;3.15;;;;;;;52.80;7.94;100375.16;5149293;27;20122;-78
2021/07/27 07:11:01;;;;;;;7.50;3.33;;;;;;;52.98;7.46;100370.91;5152105;27;20038;-77
2021/07/27 07:13:27;;;;;;;5.07;3.20;;;;;;;52.91;7.31;100375.94;5133886;27;20043;-75
2021/07/27 07:15:54;;;;;;;4.40;2.90;;;;;;;53.01;7.60;100376.75;5133128;27;20076;-76
2021/07/27 07:18:21;;;;;;;3.30;3.03;;;;;;;53.29;7.07;100366.09;5117214;27;20042;-77
2021/07/27 07:20:48;;;;;;;5.70;3.53;;;;;;;53.24;7.27;100363.28;5165247;27;20065;-79
2021/07/27 07:23:14;;;;;;;3.65;2.88;;;;;;;53.72;7.14;100364.69;5152073;27;20038;-76
2021/07/27 07:25:43;;;;;;;9.10;3.08;;;;;;;53.62;6.75;100367.53;5153461;27;20027;-79
2021/07/27 07:28:11;;;;;;;5.38;3.38;;;;;;;53.55;6.60;100360.31;5134400;27;20047;-78
2021/07/27 07:30:39;;;;;;;6.20;3.47;;;;;;;53.95;6.49;100348.41;5134299;27;20103;-76
2021/07/27 07:33:05;;;;;;;5.63;3.85;;;;;;;54.47;6.26;100357.06;5134285;27;20087;-78
2021/07/27 07:35:31;;;;;;;5.78;3.72;;;;;;;55.09;6.15;100373.84;5134104;27;20038;-78
2021/07/27 07:37:57;;;;;;;4.80;3.30;;;;;;;55.34;5.74;100366.28;5117930;27;20106;-76
2021/07/27 07:40:23;;;;;;;3.50;2.78;;;;;;;55.29;5.43;100363.56;5153043;27;20151;-77
2021/07/27 07:42:49;;;;;;;4.82;2.95;;;;;;;54.45;5.91;100356.53;5132679;27;20043;-77
2021/07/27 07:45:15;;;;;;;6.18;3.03;;;;;;;54.46;6.27;100359.00;5143297;27;20034;-78
2021/07/27 07:47:42;;;;;;;3.63;2.72;;;;;;;54.84;6.17;100355.50;5133891;27;20031;-77
2021/07/27 07:50:11;;;;;;;4.88;3.35;;;;;;;55.17;5.70;100350.06;5134544;27;20114;-76
2021/07/27 07:52:37;;;;;;;3.40;3.08;;;;;;;55.60;5.23;100357.53;5134281;27;20079;-78
2021/07/27 07:55:06;;;;;;;3.30;2.63;;;;;;;54.46;5.61;100353.44;5152474;27;20050;-76
2021/07/27 07:57:33;;;;;;;3.95;2.83;;;;;;;54.05;5.58;100342.72;5134049;27;20047;-77
2021/07/27 08:00:00;;;;;;;3.88;2.60;;;;;;;54.53;5.60;100343.91;5152832;27;20051;-79
2021/07/27 08:02:29;;;;;;;4.05;3.08;;;;;;;54.53;5.51;100341.94;5152903;27;20050;-79
2021/07/27 08:04:55;;;;;;;;;;;;;;;54.59;5.53;100342.72;5154451;27;20046;-79
2021/07/27 08:07:21;;;;;;;3.65;2.60;;;;;;;55.02;5.67;100342.78;5153102;27;19915;-80
2021/07/27 08:09:47;;;;;;;4.03;2.80;;;;;;;55.15;5.36;100345.91;5115512;27;20054;-78
2021/07/27 08:12:17;;;;;;;5.15;3.05;;;;;;;54.87;5.42;100331.78;5118095;27;20046;-77
2021/07/27 08:14:45;;;;;;;3.28;2.80;;;;;;;55.03;5.14;100333.28;5135291;27;20046;-79
2021/07/27 08:17:12;;;;;;;3.90;3.05;;;;;;;55.25;5.03;100334.63;5117477;27;20477;-79
2021/07/27 08:19:39;;;;;;;3.22;2.92;;;;;;;55.11;4.99;100340.13;5137670;27;20039;-77
2021/07/27 08:22:06;;;;;;;4.43;3.03;;;;;;;55.11;5.04;100339.28;5137258;27;20392;-77
2021/07/27 08:24:33;;;;;;;4.93;3.05;;;;;;;54.70;4.88;100335.91;5156866;27;20562;-77
2021/07/27 08:27:09;;;;;;;4.18;2.90;;;;;;;54.47;5.06;100335.59;5166847;27;20366;-75
2021/07/27 08:29:36;;;;;;;3.05;2.70;;;;;;;54.06;5.61;100333.25;5157535;27;20042;-79
2021/07/27 08:32:09;;;;;;;4.97;2.90;;;;;;;54.54;5.53;100326.91;5137590;27;20035;-78
2021/07/27 08:34:41;;;;;;;5.70;3.30;;;;;;;55.00;5.41;100328.31;5156259;27;20046;-76
2021/07/27 08:37:08;;;;;;;3.67;2.88;;;;;;;55.45;4.95;100325.13;5137085;27;20077;-78
2021/07/27 08:39:34;;;;;;;5.03;2.90;;;;;;;56.16;4.84;100328.97;5120356;27;20057;-76
2021/07/27 08:42:02;;;;;;;3.65;3.35;;;;;;;56.83;4.90;100328.44;5137184;27;20034;-78
2021/07/27 08:44:30;;;;;;;5.18;2.97;;;;;;;57.33;4.11;100325.97;5137159;27;20043;-77
2021/07/27 08:46:58;;;;;;;3.97;3.67;;;;;;;56.87;4.72;100326.72;5138660;27;20120;-79
2021/07/27 08:49:25;;;;;;;5.73;3.20;;;;;;;56.70;5.25;100324.56;5120129;27;20171;-77
2021/07/27 08:51:51;;;;;;;3.78;3.13;;;;;;;56.30;4.61;100310.28;5137083;27;20038;-79
2021/07/27 08:54:17;;;;;;;7.82;3.53;;;;;;;56.08;4.95;100305.41;5137497;27;20038;-79
2021/07/27 08:56:51;;;;;;;5.55;3.55;;;;;;;56.37;4.88;100307.91;5120327;27;20058;-80
2021/07/27 08:59:18;;;;;;;4.97;3.45;;;;;;;56.51;4.18;100293.09;5136196;27;20035;-78
2021/07/27 09:01:44;;;;;;;3.88;3.35;;;;;;;56.77;4.07;100303.75;5155581;27;20042;-79
2021/07/27 09:04:11;;;;;;;5.80;3.72;;;;;;;56.89;4.27;100306.84;5155670;27;20039;-79
2021/07/27 09:06:37;;;;;;;3.75;3.45;;;;;;;56.87;4.08;100298.78;5155887;27;20415;-79
2021/07/27 09:09:09;;;;;;;3.80;3.40;;;;;;;57.08;4.56;100309.47;5122872;27;20480;-79
2021/07/27 09:11:44;;;;;;;4.20;3.55;;;;;;;57.26;4.25;100304.06;5134739;27;20461;-78
2021/07/27 09:14:16;;;;;;;8.93;3.60;;;;;;;57.36;4.30;100311.38;5082110;27;20129;-77
2021/07/27 09:16:46;;;;;;;7.85;3.97;;;;;;;57.44;3.98;100302.19;5115966;27;20107;-79
2021/07/27 09:19:13;;;;;;;4.72;3.90;;;;;;;57.54;3.70;100313.16;5112931;27;20027;-80
2021/07/27 09:21:42;;;;;;;3.88;3.58;;;;;;;57.01;4.47;100306.31;5115628;27;20047;-79
2021/07/27 09:24:23;;;;;;;4.05;3.75;;;;;;;56.91;3.91;100306.53;5116314;27;20137;-78
2021/07/27 09:26:59;;;;;;;4.72;3.60;;;;;;;57.10;3.72;100307.19;5134976;27;20042;-76
2021/07/27 09:29:29;;;;;;;5.25;3.38;;;;;;;56.80;4.45;100305.91;5119287;27;20042;-78
2021/07/27 09:31:57;;;;;;;4.82;3.63;;;;;;;56.28;4.13;100305.03;5102390;27;20039;-79
2021/07/27 09:34:24;;;;;;;8.32;4.00;;;;;;;55.34;4.22;100290.22;5150306;27;20495;-78
2021/07/27 09:37:03;;;;;;;4.53;3.28;;;;;;;54.50;4.56;100286.88;5136245;27;20035;-77
2021/07/27 09:39:30;;;;;;;4.03;3.50;;;;;;;55.02;4.74;100289.00;5136445;27;20511;-78
2021/07/27 09:42:10;;;;;;;4.30;3.30;;;;;;;54.95;4.86;100275.47;5156127;27;20043;-79
2021/07/27 09:44:38;;;;;;;4.03;3.60;;;;;;;55.09;4.63;100281.91;5155261;27;20042;-78
2021/07/27 09:47:04;;;;;;;6.10;3.60;;;;;;;54.85;5.20;100287.53;5149717;27;20049;-78
2021/07/27 09:49:30;;;;;;;3.95;3.50;;;;;;;54.87;4.90;100278.88;5155518;27;20034;-77
2021/07/27 09:51:56;;;;;;;5.07;3.35;;;;;;;54.48;5.21;100278.81;5118981;27;20042;-78
2021/07/27 09:54:24;;;;;;;4.20;3.63;;;;;;;54.31;5.32;100278.47;5155113;27;20034;-77
2021/07/27 09:56:54;;;;;;;5.30;3.35;;;;;;;54.32;4.92;100271.78;5154836;27;20038;-78
2021/07/27 09:59:23;;;;;;;5.50;2.90;;;;;;;54.37;4.76;100266.19;5157449;27;20159;-76
2021/07/27 10:01:58;;;;;;;5.15;3.42;;;;;;;54.49;4.55;100269.34;5126330;27;20495;-76
2021/07/27 10:04:36;;;;;;;6.03;3.20;;;;;;;54.33;4.69;100257.56;5143860;27;20034;-78
2021/07/27 10:07:04;;;;;;;7.53;3.28;;;;;;;53.74;5.28;100248.47;5160721;27;20031;-78
2021/07/27 10:09:34;;;;;;;4.50;3.28;;;;;;;53.27;5.31;100245.22;5120963;27;20039;-76
2021/07/27 10:12:07;;;;;;;6.18;2.83;;;;;;;52.39;5.35;100242.88;5135613;27;20465;-78
2021/07/27 10:14:41;;;;;;;5.75;2.88;;;;;;;52.60;5.13;100235.34;5114798;27;20067;-79
2021/07/27 10:17:09;;;;;;;7.65;3.30;;;;;;;52.97;4.93;100245.13;5133099;27;20130;-78
2021/07/27 10:19:50;;;;;;;4.45;2.85;;;;;;;52.12;6.01;100239.34;5134704;27;20099;-78
2021/07/27 10:22:17;;;;;;;3.63;2.80;;;;;;;51.19;5.87;100235.75;5119484;27;20054;-79
2021/07/27 10:24:44;;;;;;;6.70;3.17;;;;;;;49.76;6.57;100240.31;5134995;27;20043;-80
2021/07/27 10:27:21;;;;;;;5.18;3.17;;;;;;;49.76;6.77;100226.50;5133687;27;20039;-77
2021/07/27 10:29:48;;;;;;;5.57;2.90;;;;;;;49.41;6.94;100223.97;5105757;27;20096;-77
2021/07/27 10:32:16;;;;;;;6.35;2.95;;;;;;;49.30;6.96;100227.75;5132884;27;20123;-78
2021/07/27 10:34:43;;;;;;;9.70;3.20;;;;;;;48.20;7.08;100224.78;5112520;27;20563;-77
2021/07/27 10:37:11;;;;;;;3.67;2.60;;;;;;;46.47;8.01;100217.53;5132991;27;20107;-78
2021/07/27 10:39:52;;;;;;;7.07;3.00;;;;;;;45.22;8.19;100227.38;5105616;27;20039;-77
2021/07/27 10:42:18;;;;;;;5.15;2.80;;;;;;;43.91;9.20;100220.16;5137770;27;20057;-76
2021/07/27 10:44:46;;;;;;;6.20;2.58;;;;;;;42.10;10.27;100222.63;5132556;27;20392;-78
2021/07/27 10:47:20;;;;;;;6.43;2.92;;;;;;;40.87;11.20;100196.34;5136276;27;20395;-77
2021/07/27 10:49:46;;;;;;;5.63;3.17;;;;;;;40.29;11.60;100208.38;5134110;27;20061;-77
2021/07/27 10:52:12;;;;;;;5.50;2.92;;;;;;;39.35;12.37;100199.41;5134739;27;20526;-77
2021/07/27 10:54:42;;;;;;;6.15;3.22;;;;;;;38.55;13.38;100194.59;5133928;27;20039;-77
2021/07/27 10:57:10;;;;;;;3.58;2.80;;;;;;;38.20;13.19;100211.44;5134702;27;20065;-77
2021/07/27 10:59:36;;;;;;;4.15;2.58;;;;;;;37.91;13.21;100204.06;5117494;27;20065;-78
2021/07/27 11:02:11;;;;;;;6.47;4.07;;;;;;;37.31;14.41;100182.09;5134880;27;20034;-77
2021/07/27 11:04:37;;;;;;;4.78;2.92;;;;;;;36.94;14.59;100208.91;5117157;27;20118;-78
2021/07/27 11:07:14;;;;;;;5.95;3.03;;;;;;;35.62;15.38;100203.66;5134252;27;20125;-77
2021/07/27 11:09:54;;;;;;;5.18;2.80;;;;;;;35.12;16.36;100201.69;5113646;27;20043;-77
2021/07/27 11:12:30;;;;;;;4.30;2.70;;;;;;;34.88;16.29;100190.75;5132066;27;20046;-76
2021/07/27 11:15:04;;;;;;;4.35;2.88;;;;;;;34.48;16.72;100171.50;5131338;27;20039;-77
2021/07/27 11:17:30;;;;;;;4.10;2.80;;;;;;;34.45;16.88;100199.69;5135128;27;20037;-78
2021/07/27 11:19:58;;;;;;;5.47;2.75;;;;;;;34.33;17.03;100209.00;5133883;27;20415;-77
2021/07/27 11:22:26;;;;;;;5.47;3.13;;;;;;;33.71;17.31;100178.38;5133498;27;20487;-77
2021/07/27 11:24:54;;;;;;;6.47;2.90;;;;;;;33.57;18.17;100204.03;5133499;27;20038;-77
2021/07/27 11:27:28;;;;;;;6.68;3.28;;;;;;;33.68;17.88;100202.09;5152887;27;20042;-76
2021/07/27 11:30:02;;;;;;;6.70;3.78;;;;;;;33.49;18.19;100201.25;5153536;27;20094;-77
2021/07/27 11:32:51;;;;;;;5.50;2.72;;;;;;;33.26;18.44;100196.25;5135073;27;20035;-78
2021/07/27 11:35:20;;;;;;;5.78;2.80;;;;;;;32.84;18.45;100202.16;5152429;27;20038;-76
2021/07/27 11:37:59;;;;;;;;;;;;;;;32.73;18.72;100187.88;5134352;27;20035;-76
2021/07/27 11:40:25;;;;;;;8.25;3.15;;;;;;;32.80;18.34;100189.97;5134325;27;19914;-77
2021/07/27 11:43:07;;;;;;;9.40;3.00;;;;;;;32.59;19.28;100193.72;5152689;27;20053;-77
2021/07/27 11:45:40;;;;;;;3.47;2.58;;;;;;;32.42;19.15;100180.06;5139809;27;20035;-78
2021/07/27 11:48:06;;;;;;;4.88;2.80;;;;;;;32.42;19.57;100180.06;5164214;27;20083;-76
2021/07/27 11:50:40;;;;;;;5.40;2.88;;;;;;;32.41;19.48;100177.53;5169365;27;20131;-77
2021/07/27 11:53:08;;;;;;;6.28;3.10;;;;;;;32.41;19.49;100172.16;5155590;27;20034;-77